Thunder radar more information blitzortung!


Radar de pluja more information rain snow radar


Visita la nostra xarxa de llocs de meteo:

Template documentation
and downloads

And another site



No particular awareness of the weather is required.    There are no Weather-warnings

Pagina Historial Weather Underground text

Diari Resum Juny 11, 2017 Unitats:  Mètric    Imperial   Tant
« Previous Dia
SegĂźent Dia »
Diari Setmana Mensual Anual Personalitzada
  Maxima: Minima: Media:
Temperatura: -17.8 °C -8.4 °C -3 °C
Punt de rosada: -17.8 °C -16.2 °C -13.9 °C
Humitat: Humidity % 16 % 31 %
Wind Speed: 0 km/h 0 km/h 6.4 km/h
RĂ fegues de vent: 0 km/h - -
Vent:- - SSW
Pression baro: 0 hPa 34327.3 hPa -
Precipitacions: 0 mm    
Historical Graphs
 
 
Dades de taula per Juny 11, 2017
Temps Temperatura Punt de rosada Pression baro Vent Wind Speed RĂ fegues de vent Humitat Rainfall Rate (Hourly)
-17.8 °C -17.8 °C 0 hPa Calm     Humidity % 0 mm
00:00 -8.1 °C -12.4 °C 34361.1 hPa Calm   5.1 km/h 60 % 0 mm
00:04 -5.7 °C -12.1 °C 34462.7 hPa WSW 6 km/h 6 km/h 48 % 0 mm
00:10 -8.2 °C -12.6 °C 34395 hPa WSW 5.1 km/h 5.1 km/h 60 % 0 mm
00:20 -8.2 °C -12.4 °C 34395 hPa Calm   5.1 km/h 61 % 0 mm
00:30 -8.3 °C -12.8 °C 34395 hPa Calm   2.6 km/h 59 % 0 mm
00:40 -8.4 °C -12.7 °C 34395 hPa SW 5.1 km/h 5.1 km/h 60 % 0 mm
00:50 -8.3 °C -12.8 °C 34395 hPa WSW 5.1 km/h 7.7 km/h 59 % 0 mm
01:00 -8.4 °C -12.9 °C 34395 hPa Calm   5.1 km/h 59 % 0 mm
01:10 -8.3 °C -12.9 °C 34395 hPa Calm   2.6 km/h 58 % 0 mm
01:20 -8.3 °C -13.1 °C 34395 hPa Calm   2.6 km/h 57 % 0 mm
01:30 -8.4 °C -12.9 °C 34395 hPa Calm     59 % 0 mm
01:40 -8.3 °C -12.8 °C 34395 hPa SSW 2.6 km/h 5.1 km/h 59 % 0 mm
01:50 -8.2 °C -12.6 °C 34395 hPa Calm   2.6 km/h 60 % 0 mm
02:00 -8.2 °C -12.7 °C 34395 hPa Calm     59 % 0 mm
02:10 -8.1 °C -12.6 °C 34395 hPa Calm   2.6 km/h 59 % 0 mm
02:20 -7.7 °C -12.2 °C 34395 hPa Calm     59 % 0 mm
02:30 -7.7 °C -12.4 °C 34361.1 hPa SSE 2.6 km/h 5.1 km/h 58 % 0 mm
02:40 -7.4 °C -12.1 °C 34395 hPa Calm   5.1 km/h 58 % 0 mm
02:50 -6.7 °C -11.8 °C 34395 hPa NNW 5.1 km/h 5.1 km/h 55 % 0 mm
03:00 -6.3 °C -11.5 °C 34395 hPa Calm   5.1 km/h 55 % 0 mm
03:10 -5.8 °C -11.5 °C 34395 hPa Calm   2.6 km/h 52 % 0 mm
03:20 -5.8 °C -11.6 °C 34395 hPa Calm   2.6 km/h 52 % 0 mm
03:30 -5.5 °C -11.4 °C 34428.8 hPa NW 2.6 km/h 2.6 km/h 51 % 0 mm
03:40 -5.7 °C -11.4 °C 34395 hPa Calm   5.1 km/h 52 % 0 mm
03:50 -5.4 °C -11.3 °C 34395 hPa SW 2.6 km/h 5.1 km/h 51 % 0 mm
04:00 -5.5 °C -11.6 °C 34395 hPa SW 2.6 km/h 5.1 km/h 50 % 0 mm
04:10 -5.2 °C -11.4 °C 34428.8 hPa SW 5.1 km/h 5.1 km/h 49 % 0 mm
04:20 -4.7 °C -11.2 °C 34428.8 hPa Calm   7.7 km/h 48 % 0 mm
04:30 -4.4 °C -10.9 °C 34395 hPa SW 2.6 km/h 5.1 km/h 48 % 0 mm
04:40 -4.1 °C -10.8 °C 34395 hPa SSW 2.6 km/h 5.1 km/h 47 % 0 mm
04:50 -3.4 °C -10.6 °C 34395 hPa SSE 2.6 km/h 5.1 km/h 45 % 0 mm
05:00 -3.1 °C -10.4 °C 34428.8 hPa SSE 2.6 km/h 7.7 km/h 44 % 0 mm
05:10 -3.1 °C -10.6 °C 34395 hPa SW 2.6 km/h 7.7 km/h 43 % 0 mm
05:20 -2.7 °C -10.9 °C 34395 hPa SSE 2.6 km/h 5.1 km/h 40 % 0 mm
05:30 -2.3 °C -10.8 °C 34395 hPa SE 2.6 km/h 7.7 km/h 39 % 0 mm
05:40 -2.5 °C -11.4 °C 34395 hPa WSW 5.1 km/h 7.7 km/h 37 % 0 mm
05:50 -1.8 °C -12 °C 34395 hPa WSW 2.6 km/h 7.7 km/h 32 % 0 mm
06:00 -1.6 °C -12.1 °C 34395 hPa SE 2.6 km/h 7.7 km/h 31 % 0 mm
06:10 -1.1 °C -12.2 °C 34395 hPa SE 2.6 km/h 7.7 km/h 29 % 0 mm
06:20 -1.1 °C -12.5 °C 34395 hPa SSE 5.1 km/h 7.7 km/h 28 % 0 mm
06:30 -0.6 °C -12.1 °C 34395 hPa SSE 2.6 km/h 7.7 km/h 28 % 0 mm
06:40 -0.3 °C -11.6 °C 34395 hPa WSW 2.6 km/h 7.7 km/h 29 % 0 mm
06:50 -0.4 °C -12.2 °C 34361.1 hPa SE 7.7 km/h 7.7 km/h 27 % 0 mm
07:00 -0.5 °C -12.6 °C 34361.1 hPa ESE 7.7 km/h 15.6 km/h 26 % 0 mm
07:10 -0.2 °C -12.1 °C 34361.1 hPa ENE 5.1 km/h 7.7 km/h 27 % 0 mm
07:20 -0.1 °C -12.3 °C 34395 hPa East 7.7 km/h 12.9 km/h 26 % 0 mm
07:30 0.7 °C -11.3 °C 34395 hPa SSE 5.1 km/h 10.3 km/h 27 % 0 mm
07:40 1 °C -12 °C 34395 hPa South 5.1 km/h 10.3 km/h 24 % 0 mm
07:50 0.8 °C -11.4 °C 34395 hPa SSW 2.6 km/h 12.9 km/h 26 % 0 mm
08:00 0.9 °C -12.4 °C 34395 hPa SW 5.1 km/h 7.7 km/h 23 % 0 mm
08:10 0.9 °C -12.1 °C 34395 hPa SE 7.7 km/h 7.7 km/h 24 % 0 mm
08:20 0.8 °C -12.9 °C 34395 hPa SSE 12.9 km/h 12.9 km/h 22 % 0 mm
08:30 0.4 °C -12.9 °C 34395 hPa East 15.6 km/h 15.6 km/h 23 % 0 mm
08:40 0.8 °C -12.5 °C 34395 hPa East 7.7 km/h 15.6 km/h 23 % 0 mm
08:50 0.4 °C -12.8 °C 34361.1 hPa East 12.9 km/h 15.6 km/h 23 % 0 mm
09:00 0.5 °C -12.8 °C 34361.1 hPa East 18.2 km/h 23.3 km/h 23 % 0 mm
09:10 0.3 °C -12.9 °C 34361.1 hPa East 20.8 km/h 20.8 km/h 23 % 0 mm
09:20 0.3 °C -12.9 °C 34361.1 hPa East 18.2 km/h 18.2 km/h 23 % 0 mm
09:30 0.4 °C -12.9 °C 34361.1 hPa East 12.9 km/h 18.2 km/h 23 % 0 mm
09:40 0.4 °C -12.8 °C 34361.1 hPa East 15.6 km/h 18.2 km/h 23 % 0 mm
09:50 0.5 °C -12.8 °C 34361.1 hPa ENE 15.6 km/h 31.1 km/h 23 % 0 mm
10:00 0.3 °C -13.3 °C 34361.1 hPa East 7.7 km/h 20.8 km/h 22 % 0 mm
10:10 0.4 °C -13.2 °C 34361.1 hPa ESE 18.2 km/h 18.2 km/h 22 % 0 mm
10:20 0.9 °C -13.2 °C 34361.1 hPa SE 5.1 km/h 25.9 km/h 21 % 0 mm
10:30 1.6 °C -12.6 °C 34361.1 hPa SSW 7.7 km/h 18.2 km/h 21 % 0 mm
10:40 1.7 °C -13.8 °C 34361.1 hPa SW 15.6 km/h 15.6 km/h 18 % 0 mm
10:50 1.7 °C -13.3 °C 34361.1 hPa SSW 15.6 km/h 20.8 km/h 19 % 0 mm
11:00 1.5 °C -13.5 °C 34361.1 hPa SSW 15.6 km/h 23.3 km/h 19 % 0 mm
11:10 1.7 °C -14.2 °C 34361.1 hPa SW 7.7 km/h 12.9 km/h 17 % 0 mm
11:20 1.7 °C -14.2 °C 34361.1 hPa WSW 15.6 km/h 20.8 km/h 17 % 0 mm
11:30 1.4 °C -14 °C 34361.1 hPa SW 12.9 km/h 25.9 km/h 18 % 0 mm
11:40 0.9 °C -14.4 °C 34361.1 hPa SW 12.9 km/h 28.5 km/h 18 % 0 mm
11:50 0.9 °C -14.8 °C 34361.1 hPa SW 15.6 km/h 28.5 km/h 17 % 0 mm
12:00 1 °C -14.3 °C 34361.1 hPa SW 7.7 km/h 15.6 km/h 18 % 0 mm
12:10 0.8 °C -15.4 °C 34327.3 hPa SW 15.6 km/h 33.6 km/h 16 % 0 mm
12:20 0.7 °C -15.5 °C 34361.1 hPa SW 12.9 km/h 28.5 km/h 16 % 0 mm
12:30 0.7 °C -15.1 °C 34361.1 hPa SW 18.2 km/h 20.8 km/h 17 % 0 mm
12:40 0.6 °C -15.2 °C 34327.3 hPa SW 15.6 km/h 15.6 km/h 17 % 0 mm
12:50 0.7 °C -15.1 °C 34327.3 hPa SW 7.7 km/h 15.6 km/h 17 % 0 mm
13:00 0.3 °C -15.3 °C 34327.3 hPa SW 12.9 km/h 28.5 km/h 17 % 0 mm
13:10 0.2 °C -15.9 °C 34327.3 hPa SW 15.6 km/h 31.1 km/h 16 % 0 mm
13:20 0 °C -16.1 °C 34327.3 hPa SW 12.9 km/h 20.8 km/h 16 % 0 mm
13:30 -0.2 °C -15.7 °C 34327.3 hPa SW 20.8 km/h 25.9 km/h 17 % 0 mm
13:40 -0.2 °C -15.7 °C 34327.3 hPa SW 7.7 km/h 20.8 km/h 17 % 0 mm
13:50 -0.6 °C -15.6 °C 34327.3 hPa SW 15.6 km/h 28.5 km/h 18 % 0 mm
14:00 -0.6 °C -15.6 °C 34327.3 hPa SSW 7.7 km/h 23.3 km/h 18 % 0 mm
14:10 -0.8 °C -15.8 °C 34327.3 hPa SW 15.6 km/h 15.6 km/h 18 % 0 mm
14:20 -0.8 °C -15.4 °C 34361.1 hPa SW 12.9 km/h 15.6 km/h 19 % 0 mm
14:30 -1 °C -15.6 °C 34361.1 hPa SW 12.9 km/h 15.6 km/h 19 % 0 mm
14:40 -1.2 °C -15.3 °C 34361.1 hPa SSW 12.9 km/h 18.2 km/h 20 % 0 mm
14:50 -1.2 °C -15.3 °C 34361.1 hPa SW 5.1 km/h 18.2 km/h 20 % 0 mm
19:51 -1.3 °C -15.4 °C 34361.1 hPa SW 6 km/h 11.1 km/h 20 % 0 mm
19:56 -1.5 °C -15.9 °C 34361.1 hPa SW 15 km/h 15 km/h 19 % 0 mm
20:01 -1.7 °C -16.1 °C 34361.1 hPa SW 17.9 km/h 17.9 km/h 19 % 0 mm
20:06 -1.7 °C -15.7 °C 34361.1 hPa SSE 17.9 km/h 17.9 km/h 20 % 0 mm
20:11 -1.7 °C -15.3 °C 34361.1 hPa WSW 12.7 km/h 12.7 km/h 21 % 0 mm
20:16 -1.8 °C -15.4 °C 34361.1 hPa SSW 11.9 km/h 11.9 km/h 21 % 0 mm
20:21 -1.9 °C -15.5 °C 34361.1 hPa SW 11.9 km/h 11.9 km/h 21 % 0 mm
20:26 -2.1 °C -15.6 °C 34361.1 hPa WSW 9 km/h 9 km/h 21 % 0 mm
20:31 -2.2 °C -15.7 °C 34361.1 hPa SW 20.9 km/h 20.9 km/h 21 % 0 mm
20:36 -2.3 °C -15.9 °C 34361.1 hPa SW 15 km/h 15 km/h 21 % 0 mm
20:41 -2.4 °C -15.9 °C 34361.1 hPa WSW 15 km/h 15 km/h 21 % 0 mm
20:46 -2.6 °C -16.1 °C 34361.1 hPa SW 11.9 km/h 11.9 km/h 21 % 0 mm
20:51 -2.7 °C -16.2 °C 34361.1 hPa SW 11.9 km/h 11.9 km/h 21 % 0 mm
20:56 -2.7 °C -15.8 °C 34361.1 hPa SW 11.9 km/h 11.9 km/h 22 % 0 mm
21:01 -2.9 °C -15.9 °C 34361.1 hPa SW 9 km/h 9 km/h 22 % 0 mm
21:06 -3 °C -16.1 °C 34361.1 hPa SW 11.9 km/h 11.9 km/h 22 % 0 mm
21:11 -3.1 °C -15.8 °C 34361.1 hPa SW 9 km/h 9 km/h 23 % 0 mm
21:16 -3.2 °C -15.9 °C 34361.1 hPa SW 7.6 km/h 7.6 km/h 23 % 0 mm
21:21 -3.3 °C -15.9 °C 34361.1 hPa West 6 km/h 6 km/h 23 % 0 mm
21:26 -3.3 °C -15.7 °C 34361.1 hPa West 3.1 km/h   24 % 0 mm
21:31 -3.4 °C -15.7 °C 34361.1 hPa West 3.1 km/h   24 % 0 mm
21:36 -3.5 °C -15.8 °C 34361.1 hPa NW 6 km/h 6 km/h 24 % 0 mm
21:41 -3.6 °C -15.5 °C 34361.1 hPa Calm     25 % 0 mm
21:46 -3.6 °C -15.6 °C 34361.1 hPa NNE 4.2 km/h 4.2 km/h 25 % 0 mm
21:51 -3.7 °C -15.6 °C 34361.1 hPa NNE 4.2 km/h   25 % 0 mm
21:56 -3.7 °C -15.6 °C 34361.1 hPa Calm     25 % 0 mm
22:01 -3.7 °C -15.7 °C 34361.1 hPa Calm     25 % 0 mm
22:06 -3.7 °C -15.7 °C 34361.1 hPa Calm     25 % 0 mm
22:11 -3.8 °C -15.7 °C 34361.1 hPa WSW 4.2 km/h 5.1 km/h 25 % 0 mm
22:16 -3.8 °C -15.7 °C 34361.1 hPa WNW 3.1 km/h   25 % 0 mm
22:21 -3.9 °C -15.8 °C 34361.1 hPa WSW 6 km/h 6 km/h 25 % 0 mm
22:26 -3.9 °C -15.8 °C 34361.1 hPa SW 4.2 km/h 4.2 km/h 25 % 0 mm
22:31 -3.9 °C -15.5 °C 34395 hPa West 3.1 km/h 3.1 km/h 26 % 0 mm
22:36 -4 °C -15.6 °C 34395 hPa Calm     26 % 0 mm
22:41 -4.1 °C -15.6 °C 34395 hPa Calm     26 % 0 mm
22:46 -4.1 °C -15.7 °C 34395 hPa Calm     26 % 0 mm
22:50 -6.9 °C -14.3 °C 34395 hPa SW 2.6 km/h 5.1 km/h 42 % 0 mm
22:51 -4.2 °C -15.7 °C 34395 hPa Calm     26 % 0 mm
22:56 -4.3 °C -15.8 °C 34395 hPa Calm     26 % 0 mm
23:00 -6.9 °C -14.1 °C 34395 hPa Calm   2.6 km/h 43 % 0 mm
23:01 -4.3 °C -15.6 °C 34395 hPa Calm     27 % 0 mm
23:06 -4.4 °C -15.6 °C 34395 hPa Calm     27 % 0 mm
23:10 -7 °C -14.2 °C 34395 hPa SW 2.6 km/h 5.1 km/h 43 % 0 mm
23:11 -4.4 °C -15.7 °C 34395 hPa West 2.3 km/h   27 % 0 mm
23:16 -4.4 °C -15.4 °C 34395 hPa Calm     28 % 0 mm
23:20 -6.9 °C -14.1 °C 34395 hPa SW 5.1 km/h 5.1 km/h 43 % 0 mm
23:21 -4.5 °C -15.4 °C 34395 hPa SW 3.1 km/h 3.1 km/h 28 % 0 mm
23:26 -4.6 °C -15.2 °C 34395 hPa Calm     29 % 0 mm
23:30 -6.9 °C -13.9 °C 34395 hPa Calm   5.1 km/h 44 % 0 mm
23:31 -4.7 °C -15.3 °C 34395 hPa SW 3.1 km/h 3.1 km/h 29 % 0 mm
23:36 -4.7 °C -15.3 °C 34395 hPa Calm     29 % 0 mm
23:40 -6.9 °C -13.8 °C 34395 hPa Calm   5.1 km/h 45 % 0 mm
23:41 -4.8 °C -15.1 °C 34395 hPa Calm     30 % 0 mm
23:47 -4.8 °C -14.9 °C 34395 hPa Calm     31 % 0 mm
23:50 -7.1 °C -14.1 °C 34395 hPa WSW 2.6 km/h 5.1 km/h 44 % 0 mm
23:52 -4.9 °C -14.7 °C 34395 hPa SW 2.3 km/h   32 % 0 mm
23:57 -5 °C -14.6 °C 34395 hPa Calm     33 % 0 mm
Meteo Sesrovires
Elogis d' Weather Underground - 1.25 mb

Guio original per  Jim McMurry - jmcmurry@mwt.net Adaptat per a la plantilla per  Wim van der Kuil - Leuven-Template.eu

Trobareu la nostra informacio del temps tambe a:

Weather Underground

AWEKAS